Sagehen Creek Weather observations

Data are for observation ending at time listed.
 Day   Time    Ave.   Ave.  Ave.  Vector   Max.   Stn.    Total    Solar   Ave.  
  of    of     Air    Rel.  Wind   Wind    Wind   Baro.  Precip.   Rad.    Soil  
Year   Day     Temp.  Hum.  Speed  Dir.    Gust   Pres.                    Temp. 
2015   (PST)    F      %     mph   deg.    mph     mb.     in.     W/m2     F   
------------------------------------------------------------------------------
 107    4:10   20.0    72    0.9   271      1.4   838.5   11.72       0    999.0
 107    4:20   19.7    73    0.6   254      1.3   838.2   11.72       0    999.0
 107    4:30   19.6    73    0.7   267      1.4   838.0   11.72       0    999.0
 107    4:40   19.5    74    0.6   262      1.2   838.4   11.72       0    999.0
 107    4:50   19.3    74    0.7   261      1.1   838.3   11.72       0    999.0
 107    5:00   19.2    75    1.0   268      1.5   838.2   11.72       0    999.0
 107    5:10   18.9    76    0.4   258      1.0   838.4   11.72       0    999.0
 107    5:20   18.8    76    1.0   270      1.6   838.5   11.72       2    999.0
 107    5:30   18.8    76    1.0   262      1.4   838.5   11.72       5    999.0
 107    5:40   18.8    76    0.6   260      1.2   838.7   11.72       8    999.0
 107    5:50   18.9    76    0.5   273      1.0   838.7   11.72      12    999.0
 107    6:00   21.0    67    0.2   265      1.0    34.9   11.72      78    999.0
 107    6:10   20.2    74    0.2   269      1.1   838.1   11.72     111    999.0
 107    6:20   22.3    67    0.0   275      0.6   838.4   11.73     148    999.0
 107    6:30   24.2    64    0.1   259      0.9   838.7   11.73     182    999.0
 107    6:40   26.3    60    0.1   253      0.6   838.2   11.73     216    999.0
 107    6:50   28.0    56    0.1   272      0.7   838.4   11.73     252    999.0
 107    7:00   29.4    55    0.0   267      0.4   838.7   11.73     287    999.0
 107    7:10   33.5    51    0.0     0      0.0   838.7   11.73     323    999.0
 107    7:20   35.9    46    0.1   111      1.0   838.5   11.73     359    999.0
 107    7:30   37.6    46    0.0   128      0.5   838.3   11.72     394    999.0
 107    7:40   39.5    44    0.0     0      0.0   838.7   11.72     430    999.0
 107    7:50   41.2    41    0.0    77      0.7   838.8   11.72     465    999.0
 107    8:00   42.6    36    0.4   104      2.4   838.8   11.72     499    999.0
 107    8:10   43.9    32    1.8    98      4.2   838.3   11.72     532    999.0
 107    8:20   45.6    29    2.5    93      4.8   838.3   11.72     563    999.0
 107    8:30   47.0    26    3.4    88      4.9   838.3   11.72     594    999.0
 107    8:40   48.4    21    2.3    88      4.8   838.4   11.72     624    999.0
 107    8:50   50.5    17    2.2    94      4.5   838.5   11.72     655    999.0
 107    9:00   51.5    16    1.9   114      4.9   838.5   11.72     683    999.0
 107    9:10   52.0    14    2.8   118      5.4   838.9   11.72     711    999.0
 107    9:20   52.6    15    2.8   117      4.7   838.9   11.71     737    999.0
 107    9:30   53.8    16    1.7   129      4.3   838.8   11.71     761    999.0
 107    9:40   54.7    15    1.7   171      4.0   838.8   11.72     785    999.0
 107    9:50   55.2    15    3.5   120      8.5   838.8   11.71     806    999.0
 107   10:00   54.6    14    3.2   116      9.5   838.7   11.71     824    999.0
 107   10:10   55.0    14    2.6   108      8.3   838.7   11.71     842    999.0
 107   10:20   54.9    14    3.1   100      6.8   838.6   11.71     859    999.0
 107   10:30   56.6    14    2.3    52      7.4   838.5   11.71     878    999.0
 107   10:40   56.4    12    3.5    93      7.0   838.4   11.71     892    999.0
 107   10:50   57.0    12    2.6    96      9.2   838.6   11.71     906    999.0
 107   11:00   58.0    12    2.1    92      7.7   838.7   11.71     888    999.0
 107   11:10   59.3    11    1.9    64      6.2   838.4   11.71     931    999.0
 107   11:20   59.1    11    2.8   132      5.3   838.4   11.71     943    999.0
 107   11:30   58.2    10    3.3    95      6.9   838.3   11.71     953    999.0
 107   11:40   59.3    11    2.3   157      5.0   838.1   11.71     956    999.0
 107   11:50   60.4    10    1.9   124      5.4   838.2   11.71     962    999.0
 107   12:00   61.6     9    2.7   130      5.8   838.3   11.71     966    999.0
 107   12:10   60.6    10    2.9   108      7.3   838.3   11.71     964    999.0
 107   12:20   61.4    10    2.8    99      8.4   838.0   11.70     961    999.0
 107   12:30   61.6    10    3.7   120      7.4   837.8   11.70     955    999.0
 107   12:40   56.0     7    2.8    53      4.1     0.0   11.70     952    999.0
 107   12:50   62.6    10    2.7   119      6.1   432.8   11.70     949    999.0
 107   13:00   62.7    10    3.1   114      6.9   837.8   11.70     940    999.0
 107   13:10   63.0    10    2.7   156      6.6   837.9   11.70     930    999.0
 107   13:20   64.0    11    2.2   161      6.8   837.7   11.70     918    999.0
 107   13:30   64.5    10    2.2    30      8.7   837.4   11.70     907    999.0
 107   13:40   64.4    10    2.2   106      8.5   837.5   11.70     892    999.0
 107   13:50   64.1    10    2.8   174      6.3   837.5   11.70     877    999.0
 107   14:00   64.9    11    1.8   164      5.5   837.5   11.70     859    999.0
 107   14:10   65.1    10    3.2    79      9.7   837.0   11.70     838    999.0
 107   14:20   64.7    10    3.5    84      7.6   837.2   11.70     814    999.0
 107   14:30   65.6    10    1.6    52      3.4   837.3   11.70     790    999.0
 107   14:40   64.9    10    4.1    92     11.4   837.2   11.70     767    999.0
 107   14:50   64.4    12    3.2   110      6.8   837.0   11.70     739    999.0
 107   15:00   65.4    12    1.7   182      5.6   836.8   11.70     714    999.0
 107   15:10   66.1    11    2.0    65      4.4   837.1   11.70     687    999.0
 107   15:20   65.3    11    3.7    79      9.0   836.9   11.70     658    999.0
 107   15:30   64.7    11    2.7    95      8.6   836.8   11.70     628    999.0
 107   15:40   65.1    11    3.0    89      7.0   836.7   11.70     598    999.0
 107   15:50   66.3    11    1.5    82      3.6   836.8   11.70     567    999.0
 107   16:00   65.5    11    2.6   122      8.6   836.9   11.70     535    999.0
 107   16:10   64.8    11    3.2    63      8.1   836.5   11.71     502    999.0
 107   16:20   64.6    10    2.6    51      5.2   836.4   11.71     468    999.0
 107   16:30   64.6    10    1.6   169      4.4   836.4   11.71     433    999.0
 107   16:40   64.8    10    1.9   238      6.3   837.0   11.71     398    999.0
 107   16:50   64.5    10    1.6   114      3.9   836.9   11.71     362    999.0
 107   17:00   64.0    10    1.4   258      3.6   836.7   11.71     326    999.0
 107   17:10   63.6    11    1.2    90      3.7   836.8   11.71     289    999.0
 107   17:20   62.3    12    1.7    48      5.1   836.9   11.71     231    999.0
 107   17:30   60.1    15    0.5    41      1.7   836.9   11.71      57    999.0
 107   17:40   57.9    17    1.0   287      2.6   836.9   11.71      86    999.0
 107   17:50   56.5    20    0.2   358      1.0   836.9   11.71      21    999.0
 107   18:00   55.0    24    0.2   275      1.3   836.8   11.71      17    999.0
 107   18:10   52.8    31    0.3   266      1.4   836.8   11.72      14    999.0
 107   18:20   50.5    33    0.3   271      1.0   836.9   11.72      10    999.0
 107   18:30   48.8    37    1.0   269      1.3   837.0   11.72       7    999.0
 107   18:40   47.2    42    1.2   269      1.6   837.1   11.72       4    999.0
 107   18:50   45.9    48    1.0   266      1.4   836.9   11.72       2    999.0
 107   19:00   44.3    53    0.4   251      1.2   836.8   11.72       0    999.0
 107   19:10   42.9    56    0.0   231      0.3   837.2   11.72       0    999.0
 107   19:20   41.8    58    0.6   251      1.0   837.2   11.72       0    999.0
 107   19:30   40.9    60    0.4   253      0.9   837.2   11.72       0    999.0
 107   19:40   39.8    64    0.3   259      1.2   837.5   11.72       0    999.0
 107   19:50   39.1    65    0.2   242      0.7   837.5   11.72       0    999.0
 107   20:00   38.2    66    0.4   259      1.2   837.5   11.72       0    999.0
 107   20:10   37.5    68    0.7   246      1.3   837.8   11.72       0    999.0
 107   20:20   36.7    69    0.4   233      0.9   837.6   11.72       0    999.0
 107   20:30   36.1    69    0.7   264      1.0   837.4   11.72       0    999.0
 107   20:40   35.5    70    0.4   252      0.9   838.0   11.72       0    999.0
 107   20:50   34.7    72    0.2   244      0.7   838.0   11.72       0    999.0
 107   21:00   34.2    71    0.7   250      1.1   838.0   11.72       0    999.0
 107   21:10   33.7    72    0.2   247      0.7   837.7   11.72       0    999.0
 107   21:20   33.2    72    0.7   250      1.2   837.9   11.72       0    999.0
 107   21:30   32.7    72    0.7   227      1.0   838.2   11.72       0    999.0
 107   21:40   32.2    71    0.4   264      0.9   838.2   11.72       0    999.0
 107   21:50   31.8    73    0.7   254      1.1   838.0   11.72       0    999.0
 107   22:00   31.4    74    0.9   235      1.1   837.9   11.72       0    999.0
 107   22:10   31.0    72    0.8   241      1.2   838.3   11.72       0    999.0
 107   22:20   30.6    74    0.4   252      1.0   838.3   11.72       0    999.0
 107   22:30   30.4    75    0.7   260      1.1   838.2   11.72       0    999.0
 107   22:40   30.0    77    0.3   253      1.0   837.9   11.72       0    999.0
 107   22:50   29.7    76    0.6   257      1.2   838.1   11.72       0    999.0
 107   23:00   29.4    77    0.7   250      1.2   838.4   11.72       0    999.0
 107   23:10   29.1    78    0.3   237      1.0   838.3   11.72       0    999.0
 107   23:20   28.8    77    0.8   268      1.2   838.1   11.72       0    999.0
 107   23:30   28.6    78    0.6   259      1.2   838.0   11.72       0    999.0
 107   23:40   28.3    78    0.7   253      1.0   838.3   11.72       0    999.0
 107   23:50   28.1    78    0.5   262      1.2   838.3   11.72       0    999.0
 108    0:00   27.8    78    0.3   264      0.8   838.4   11.72       0    999.0
 108    0:10   27.6    79    0.8   256      1.3   837.8   11.72       0    999.0
 108    0:20   27.4    79    0.4   260      1.3   838.0   11.72       0    999.0
 108    0:30   27.2    80    0.7   264      1.3   838.1   11.72       0    999.0
 108    0:40   27.2    80    0.7   257      1.2   838.1   11.72       0    999.0
 108    0:50   27.1    80    0.1   269      0.5   837.8   11.72       0    999.0
 108    1:00   27.0    81    0.6   261      1.1   837.6   11.72       0    999.0
 108    1:10   27.1    82    0.5   236      1.0   838.0   11.72       0    999.0
 108    1:20   27.2    82    0.7   267      1.3   838.0   11.72       0    999.0
 108    1:30   27.1    82    0.5   254      1.4   838.0   11.72       0    999.0
 108    1:40   27.0    82    0.2   275      0.8   837.5   11.72       0    999.0
 108    1:50   26.9    82    0.6   257      1.8   837.7   11.72       0    999.0
 108    2:00   26.8    82    0.3   276      0.9   837.8   11.72       0    999.0
 108    2:10   26.8    82    0.4   260      1.6   837.8   11.72       0    999.0
 108    2:20   26.8    83    0.0   238      0.2   837.6   11.72       0    999.0
 108    2:30   26.7    83    0.7   271      1.4   837.5   11.72       0    999.0
 108    2:40   26.7    84    0.2   261      1.0   838.0   11.72       0    999.0
 108    2:50   26.6    84    0.5   267      1.0   837.8   11.72       0    999.0
 108    3:00   26.5    85    0.4   272      1.0   837.7   11.72       0    999.0
 108    3:10   26.4    84    0.5   253      1.3   837.5   11.72       0    999.0
 108    3:20   26.3    85    0.0     0      0.0   837.7   11.72       0    999.0
 108    3:30   26.2    85    0.5   262      1.3   837.9   11.72       0    999.0
 108    3:40   26.1    85    0.0     0      0.0   837.7   11.72       0    999.0
 108    3:50   26.0    85    0.8   272      1.2   837.6   11.72       0    999.0
 108    4:00   26.0    85    0.1   229      0.8   837.5   11.72       0    999.0

Return to Sagehen Creek graphs page.


Western Regional Climate Center,wrcc@dri.edu